createdAt,value
2018-12-07T00:01:54.322Z,20.92
2018-12-07T00:04:20.258Z,20.90
2018-12-07T00:06:46.237Z,20.91
2018-12-07T00:09:12.283Z,20.91
2018-12-07T00:11:38.277Z,20.87
2018-12-07T00:14:04.235Z,20.87
2018-12-07T00:16:30.203Z,20.88
2018-12-07T00:18:56.365Z,20.87
2018-12-07T00:21:22.306Z,20.87
2018-12-07T00:23:48.288Z,20.89
2018-12-07T00:26:14.254Z,20.86
2018-12-07T00:28:40.239Z,20.85
2018-12-07T00:31:06.191Z,20.85
2018-12-07T00:33:32.151Z,20.86
2018-12-07T00:35:58.149Z,20.81
2018-12-07T00:38:24.110Z,20.83
2018-12-07T00:40:50.069Z,20.83
2018-12-07T00:43:16.029Z,20.84
2018-12-07T00:45:41.990Z,20.85
2018-12-07T00:48:07.948Z,20.85
2018-12-07T00:50:33.905Z,20.84
2018-12-07T00:52:59.871Z,20.81
2018-12-07T00:55:25.812Z,20.81
2018-12-07T00:57:51.767Z,20.83
2018-12-07T01:00:17.756Z,20.82
2018-12-07T01:02:43.703Z,20.83
2018-12-07T01:05:09.661Z,20.83
2018-12-07T01:07:35.617Z,20.83
2018-12-07T01:10:01.574Z,20.81
2018-12-07T01:12:27.541Z,20.79
2018-12-07T01:14:53.514Z,20.79
2018-12-07T01:17:19.517Z,20.79
2018-12-07T01:19:45.476Z,20.80
2018-12-07T01:22:11.435Z,20.81
2018-12-07T01:24:37.420Z,20.80
2018-12-07T01:27:03.445Z,20.76
2018-12-07T01:29:29.473Z,20.78
2018-12-07T01:31:55.478Z,20.78
2018-12-07T01:34:21.446Z,20.76
2018-12-07T01:36:47.395Z,20.79
2018-12-07T01:39:13.373Z,20.76
2018-12-07T01:41:39.363Z,20.77
2018-12-07T01:44:05.327Z,20.78
2018-12-07T01:46:31.348Z,20.78
2018-12-07T01:48:57.310Z,20.76
2018-12-07T01:51:23.294Z,20.76
2018-12-07T01:53:49.247Z,20.76
2018-12-07T01:56:15.259Z,20.76
2018-12-07T01:58:41.215Z,20.77
2018-12-07T02:01:07.194Z,20.77
2018-12-07T02:03:33.142Z,20.75
2018-12-07T02:05:59.113Z,20.77
2018-12-07T02:08:25.082Z,20.79
2018-12-07T02:10:51.070Z,20.79
2018-12-07T02:13:17.029Z,20.83
2018-12-07T02:15:42.989Z,20.85
2018-12-07T02:18:08.959Z,20.85
2018-12-07T02:20:34.929Z,20.85
2018-12-07T02:23:00.984Z,20.87
2018-12-07T02:25:26.933Z,20.88
2018-12-07T02:27:52.870Z,20.87
2018-12-07T02:30:18.830Z,20.86
2018-12-07T02:32:44.896Z,20.87
2018-12-07T02:35:10.858Z,20.86
2018-12-07T02:37:36.840Z,20.85
2018-12-07T02:40:02.820Z,20.80
2018-12-07T02:42:28.765Z,20.76
2018-12-07T02:44:54.852Z,20.75
2018-12-07T02:47:20.814Z,20.75
2018-12-07T02:49:46.828Z,20.79
2018-12-07T02:52:12.785Z,20.79
2018-12-07T02:54:38.983Z,20.81
2018-12-07T02:57:04.970Z,20.83
2018-12-07T02:59:30.935Z,20.83
2018-12-07T03:01:56.902Z,20.84
2018-12-07T03:04:22.860Z,20.85
2018-12-07T03:06:48.830Z,20.86
2018-12-07T03:09:14.787Z,20.86
2018-12-07T03:11:40.959Z,20.89
2018-12-07T03:14:06.902Z,20.89
2018-12-07T03:16:32.965Z,20.89
2018-12-07T03:18:58.919Z,20.91
2018-12-07T03:21:24.880Z,20.92
2018-12-07T03:23:50.874Z,20.93
2018-12-07T03:26:16.840Z,20.92
2018-12-07T03:28:42.799Z,20.92
2018-12-07T03:31:08.749Z,20.93
2018-12-07T03:33:34.704Z,20.95
2018-12-07T03:36:00.667Z,20.95
2018-12-07T03:38:26.694Z,20.95
2018-12-07T03:40:52.670Z,20.94
2018-12-07T03:43:18.648Z,20.94
2018-12-07T03:45:44.624Z,20.95
2018-12-07T03:48:10.570Z,20.95
2018-12-07T03:50:36.561Z,20.97
2018-12-07T03:53:02.539Z,20.95
2018-12-07T03:55:28.492Z,20.95
2018-12-07T03:57:54.771Z,20.96
2018-12-07T04:00:20.745Z,20.93
2018-12-07T04:02:46.685Z,20.96
2018-12-07T04:05:12.662Z,20.95
2018-12-07T04:07:38.778Z,20.94
2018-12-07T04:10:04.866Z,20.94
2018-12-07T04:12:30.941Z,20.93
2018-12-07T04:14:56.979Z,20.95
2018-12-07T04:17:23.158Z,20.95
2018-12-07T04:19:49.116Z,20.94
2018-12-07T04:22:15.098Z,20.96
2018-12-07T04:24:41.055Z,20.97
2018-12-07T04:27:07.019Z,20.98
2018-12-07T04:29:32.971Z,20.98
2018-12-07T04:31:58.933Z,20.98
2018-12-07T04:34:24.881Z,21.00
2018-12-07T04:36:50.830Z,21.00
2018-12-07T04:39:16.853Z,20.99
2018-12-07T04:41:42.882Z,21.00
2018-12-07T04:44:08.857Z,21.01
2018-12-07T04:46:34.810Z,21.00
2018-12-07T04:49:00.762Z,20.97
2018-12-07T04:51:26.729Z,20.99
2018-12-07T04:53:52.691Z,20.99
2018-12-07T04:56:18.646Z,21.01
2018-12-07T04:58:44.714Z,20.98
2018-12-07T05:01:10.677Z,20.98
2018-12-07T05:03:36.629Z,20.97
2018-12-07T05:06:02.608Z,20.98
2018-12-07T05:08:28.577Z,20.98
2018-12-07T05:10:54.513Z,21.00
2018-12-07T05:13:20.478Z,21.02
2018-12-07T05:15:46.473Z,21.01
2018-12-07T05:18:12.464Z,21.01
2018-12-07T05:20:38.418Z,21.04
2018-12-07T05:23:04.385Z,21.02
2018-12-07T05:25:30.503Z,21.03
2018-12-07T05:27:56.574Z,21.04
2018-12-07T05:30:22.531Z,21.03
2018-12-07T05:32:48.487Z,21.03
2018-12-07T05:35:14.440Z,21.04
2018-12-07T05:37:40.401Z,21.03
2018-12-07T05:40:06.354Z,21.03
2018-12-07T05:42:32.306Z,21.04
2018-12-07T05:44:58.266Z,21.01
2018-12-07T05:47:24.228Z,21.02
2018-12-07T05:49:50.205Z,20.99
2018-12-07T05:52:16.158Z,21.01
2018-12-07T05:54:42.136Z,21.01
2018-12-07T05:57:08.099Z,20.99
2018-12-07T05:59:34.072Z,21.02
2018-12-07T06:02:00.023Z,21.01
2018-12-07T06:04:26.044Z,20.97
2018-12-07T06:06:52.031Z,20.96
2018-12-07T06:09:17.998Z,20.97
2018-12-07T06:11:43.993Z,20.98
2018-12-07T06:14:09.953Z,21.00
2018-12-07T06:16:35.900Z,21.03
2018-12-07T06:19:01.874Z,21.03
2018-12-07T06:21:27.830Z,21.02
2018-12-07T06:23:53.829Z,21.03
2018-12-07T06:26:19.802Z,21.02
2018-12-07T06:28:45.881Z,21.02
2018-12-07T06:31:11.822Z,21.01
2018-12-07T06:33:37.774Z,21.03
2018-12-07T06:36:03.730Z,21.01
2018-12-07T06:38:29.700Z,21.01
2018-12-07T06:40:55.650Z,21.01
2018-12-07T06:43:21.609Z,21.02
2018-12-07T06:45:47.563Z,21.01
2018-12-07T06:48:13.505Z,21.03
2018-12-07T06:50:39.475Z,21.04
2018-12-07T06:53:05.456Z,21.02
2018-12-07T06:55:31.415Z,21.03
2018-12-07T06:57:57.378Z,21.01
2018-12-07T07:00:23.564Z,21.02
2018-12-07T07:02:49.510Z,21.02
2018-12-07T07:05:15.492Z,21.04
2018-12-07T07:07:41.429Z,21.04
2018-12-07T07:10:07.402Z,21.05
2018-12-07T07:12:33.359Z,21.04
2018-12-07T07:14:59.314Z,21.06
2018-12-07T07:17:25.363Z,21.04
2018-12-07T07:19:51.413Z,21.03
2018-12-07T07:22:17.391Z,21.03
2018-12-07T07:24:43.355Z,21.02
2018-12-07T07:27:09.331Z,21.04
2018-12-07T07:29:35.290Z,21.08
2018-12-07T07:32:01.360Z,21.08
2018-12-07T07:34:27.335Z,21.09
2018-12-07T07:36:53.318Z,21.10
2018-12-07T07:39:19.266Z,21.09
2018-12-07T07:41:45.222Z,21.11
2018-12-07T07:44:11.169Z,21.12
2018-12-07T07:46:37.259Z,21.13
2018-12-07T07:49:03.223Z,21.14
2018-12-07T07:51:29.178Z,21.14
2018-12-07T07:53:55.196Z,21.14
2018-12-07T07:56:21.159Z,21.15
2018-12-07T07:58:47.107Z,21.11
2018-12-07T08:01:13.078Z,21.03
2018-12-07T08:03:39.127Z,21.03
2018-12-07T08:06:05.065Z,21.02
2018-12-07T08:08:31.078Z,21.01
2018-12-07T08:10:57.103Z,20.99
2018-12-07T08:13:23.178Z,20.98
2018-12-07T08:15:49.126Z,20.99
2018-12-07T08:18:15.274Z,20.98
2018-12-07T08:20:41.312Z,21.00
2018-12-07T08:23:14.499Z,21.00
2018-12-07T08:25:35.261Z,20.98
2018-12-07T08:28:01.278Z,20.97
2018-12-07T08:30:27.431Z,21.00
2018-12-07T08:32:53.387Z,20.97
2018-12-07T08:35:19.374Z,21.01
2018-12-07T08:37:45.334Z,21.00
2018-12-07T08:40:11.317Z,21.02
2018-12-07T08:42:37.299Z,21.02
2018-12-07T08:45:03.539Z,21.03
2018-12-07T08:47:29.514Z,21.06
2018-12-07T08:49:55.864Z,21.06
2018-12-07T08:52:22.046Z,21.08
2018-12-07T08:54:48.010Z,21.08
2018-12-07T08:57:14.089Z,21.10
2018-12-07T08:59:40.102Z,21.10
2018-12-07T09:02:06.087Z,21.10
2018-12-07T09:04:32.046Z,21.10
2018-12-07T09:06:58.028Z,21.06
2018-12-07T09:09:23.973Z,21.07
2018-12-07T09:11:49.944Z,21.09
2018-12-07T09:14:15.899Z,21.08
2018-12-07T09:16:41.944Z,21.09
2018-12-07T09:19:07.900Z,21.11
2018-12-07T09:21:33.899Z,21.11
2018-12-07T09:23:59.909Z,21.12
2018-12-07T09:26:25.881Z,21.13
2018-12-07T09:28:51.836Z,21.13
2018-12-07T09:31:17.915Z,21.13
2018-12-07T09:33:43.859Z,21.13
2018-12-07T09:36:09.841Z,21.13
2018-12-07T09:38:35.806Z,21.13
2018-12-07T09:41:01.754Z,21.15
2018-12-07T09:43:27.750Z,21.14
2018-12-07T09:45:53.719Z,21.15
2018-12-07T09:48:19.686Z,21.15
2018-12-07T09:50:45.652Z,21.13
2018-12-07T09:53:11.659Z,21.12
2018-12-07T09:55:37.613Z,21.14
2018-12-07T09:58:03.574Z,21.14
2018-12-07T10:00:29.539Z,21.16
2018-12-07T10:02:55.480Z,21.17
2018-12-07T10:05:21.442Z,21.16
2018-12-07T10:07:47.461Z,21.17
2018-12-07T10:10:13.426Z,21.16
2018-12-07T10:12:39.415Z,21.18
2018-12-07T10:15:05.446Z,21.18
2018-12-07T10:17:31.413Z,21.18
2018-12-07T10:19:57.452Z,21.17
2018-12-07T10:22:23.434Z,21.17
2018-12-07T10:24:49.451Z,21.17
2018-12-07T10:27:15.406Z,21.16
2018-12-07T10:29:41.519Z,21.16
2018-12-07T10:32:07.519Z,21.16
2018-12-07T10:34:33.470Z,21.16
2018-12-07T10:36:59.565Z,21.12
2018-12-07T10:39:25.531Z,21.12
2018-12-07T10:41:51.500Z,21.15
2018-12-07T10:44:17.658Z,21.16
2018-12-07T10:46:43.626Z,21.16
2018-12-07T10:49:09.616Z,21.17
2018-12-07T10:51:35.574Z,21.17
2018-12-07T10:54:01.568Z,21.19
2018-12-07T10:56:27.535Z,21.19
2018-12-07T10:58:53.490Z,21.22
2018-12-07T11:01:19.456Z,21.20
2018-12-07T11:03:45.442Z,21.20
2018-12-07T11:06:11.497Z,21.22
2018-12-07T11:08:37.450Z,21.23
2018-12-07T11:11:03.427Z,21.22
2018-12-07T11:13:29.389Z,21.22
2018-12-07T11:15:55.365Z,21.23
2018-12-07T11:18:21.332Z,21.23
2018-12-07T11:20:47.296Z,21.26
2018-12-07T11:23:13.245Z,21.26
2018-12-07T11:25:39.280Z,21.27
2018-12-07T11:28:05.262Z,21.26
2018-12-07T11:30:31.222Z,21.25
2018-12-07T11:32:57.220Z,21.27
2018-12-07T11:35:23.165Z,21.28
2018-12-07T11:37:49.136Z,21.27
2018-12-07T11:40:15.082Z,21.27
2018-12-07T11:42:41.105Z,21.27
2018-12-07T11:45:07.179Z,21.26
2018-12-07T11:47:33.161Z,21.26
2018-12-07T11:49:59.234Z,21.26
2018-12-07T11:52:25.171Z,21.28
2018-12-07T11:54:51.153Z,21.28
2018-12-07T11:57:17.115Z,21.30
2018-12-07T11:59:43.133Z,21.30
2018-12-07T12:02:09.098Z,21.31
2018-12-07T12:04:35.077Z,21.34
2018-12-07T12:07:01.031Z,21.33
2018-12-07T12:09:27.009Z,21.33
2018-12-07T12:11:53.006Z,21.34
2018-12-07T12:14:18.980Z,21.35
2018-12-07T12:16:45.014Z,21.36
2018-12-07T12:19:10.975Z,21.38
2018-12-07T12:21:36.968Z,21.38
2018-12-07T12:24:02.914Z,21.38
2018-12-07T12:26:28.907Z,21.37
2018-12-07T12:28:54.851Z,21.37
2018-12-07T12:31:20.812Z,21.36
2018-12-07T12:33:46.770Z,21.37
2018-12-07T12:36:17.048Z,21.35
2018-12-07T12:38:40.686Z,21.35
2018-12-07T12:41:06.741Z,21.37
2018-12-07T12:43:32.710Z,21.36
2018-12-07T12:45:58.685Z,21.34
2018-12-07T12:48:24.672Z,21.35
2018-12-07T12:50:50.647Z,21.34
2018-12-07T12:53:16.593Z,21.34
2018-12-07T12:55:42.598Z,21.33
2018-12-07T12:58:08.550Z,21.32
2018-12-07T13:00:34.518Z,21.32
2018-12-07T13:03:00.461Z,21.30
2018-12-07T13:05:26.414Z,21.29
2018-12-07T13:07:52.368Z,21.27
2018-12-07T13:10:18.478Z,21.26
2018-12-07T13:12:44.430Z,21.29
2018-12-07T13:15:10.432Z,21.29
2018-12-07T13:17:36.393Z,21.29
2018-12-07T13:20:02.350Z,21.31
2018-12-07T13:22:28.409Z,21.30
2018-12-07T13:24:54.378Z,21.31
2018-12-07T13:27:20.357Z,21.30
2018-12-07T13:29:46.407Z,21.31
2018-12-07T13:32:12.367Z,21.30
2018-12-07T13:34:38.327Z,21.30
2018-12-07T13:37:04.313Z,21.31
2018-12-07T13:39:30.291Z,21.28
2018-12-07T13:41:56.631Z,21.28
2018-12-07T13:44:22.688Z,21.27
2018-12-07T13:46:48.692Z,21.28
2018-12-07T13:49:14.823Z,21.30
2018-12-07T13:51:41.114Z,21.30
2018-12-07T13:54:07.208Z,21.30
2018-12-07T13:56:33.310Z,21.29
2018-12-07T13:58:59.338Z,21.29
2018-12-07T14:01:25.285Z,21.30
2018-12-07T14:03:51.325Z,21.29
2018-12-07T14:06:17.784Z,21.29
2018-12-07T14:08:43.868Z,21.30
2018-12-07T14:11:09.929Z,21.30
2018-12-07T14:13:36.025Z,21.24
2018-12-07T14:16:02.317Z,21.25
2018-12-07T14:18:28.438Z,21.25
2018-12-07T14:20:54.520Z,21.27
2018-12-07T14:23:20.652Z,21.26
2018-12-07T14:25:46.865Z,21.26
2018-12-07T14:28:13.141Z,21.25
2018-12-07T14:30:39.680Z,21.27
2018-12-07T14:33:05.868Z,21.26
2018-12-07T14:35:32.131Z,21.25
2018-12-07T14:37:58.243Z,21.25
2018-12-07T14:40:24.369Z,21.25
2018-12-07T14:42:50.574Z,21.26
2018-12-07T14:45:16.622Z,21.26
2018-12-07T14:47:42.561Z,21.27
2018-12-07T14:50:08.573Z,21.26
2018-12-07T14:52:34.712Z,21.27
2018-12-07T14:55:00.890Z,21.28
2018-12-07T14:57:27.062Z,21.28
2018-12-07T14:59:53.227Z,21.29
2018-12-07T15:02:19.528Z,21.28
2018-12-07T15:04:45.947Z,21.29
2018-12-07T15:07:12.052Z,21.30
2018-12-07T15:09:38.202Z,21.29
2018-12-07T15:12:04.426Z,21.29
2018-12-07T15:14:30.579Z,21.30
2018-12-07T15:16:56.780Z,21.32
2018-12-07T15:19:22.943Z,21.32
2018-12-07T15:21:49.043Z,21.32
2018-12-07T15:24:15.336Z,21.33
2018-12-07T15:26:41.445Z,21.35
2018-12-07T15:29:07.828Z,21.35
2018-12-07T15:31:34.026Z,21.34
2018-12-07T15:34:00.133Z,21.35
2018-12-07T15:36:26.220Z,21.35
2018-12-07T15:38:52.542Z,21.35
2018-12-07T15:41:18.731Z,21.36
2018-12-07T15:43:44.987Z,21.35
2018-12-07T15:46:11.123Z,21.35
2018-12-07T15:48:37.442Z,21.35
2018-12-07T15:51:03.614Z,21.35
2018-12-07T15:53:29.748Z,21.34
2018-12-07T15:55:55.895Z,21.33
2018-12-07T15:58:21.920Z,21.33
2018-12-07T16:00:47.931Z,21.33
2018-12-07T16:03:13.982Z,21.33
2018-12-07T16:05:40.235Z,21.32
2018-12-07T16:08:06.332Z,21.33
2018-12-07T16:10:32.477Z,21.30
2018-12-07T16:12:58.916Z,21.29
2018-12-07T16:15:25.038Z,21.28
2018-12-07T16:17:51.037Z,21.26
2018-12-07T16:20:17.248Z,21.29
2018-12-07T16:22:43.461Z,21.30
2018-12-07T16:25:09.669Z,21.30
2018-12-07T16:27:35.709Z,21.30
2018-12-07T16:30:02.164Z,21.30
2018-12-07T16:32:28.321Z,21.30
2018-12-07T16:34:54.772Z,21.31
2018-12-07T16:37:20.883Z,21.29
2018-12-07T16:39:46.890Z,21.30
2018-12-07T16:42:13.103Z,21.30
2018-12-07T16:44:39.269Z,21.30
2018-12-07T16:47:05.369Z,21.28
2018-12-07T16:49:31.404Z,21.28
2018-12-07T16:51:57.481Z,21.28
2018-12-07T16:54:23.622Z,21.27
2018-12-07T16:56:49.816Z,21.27
2018-12-07T16:59:16.159Z,21.26
2018-12-07T17:01:42.284Z,21.27
2018-12-07T17:04:08.408Z,21.26
2018-12-07T17:06:34.554Z,21.25
2018-12-07T17:09:00.697Z,21.27
2018-12-07T17:11:27.099Z,21.28
2018-12-07T17:13:53.304Z,21.27
2018-12-07T17:16:19.424Z,21.27
2018-12-07T17:18:45.465Z,21.28
2018-12-07T17:21:11.632Z,21.28
2018-12-07T17:23:37.934Z,21.27
2018-12-07T17:26:03.954Z,21.28
2018-12-07T17:28:29.939Z,21.26
2018-12-07T17:30:56.128Z,21.25
2018-12-07T17:33:22.478Z,21.26
2018-12-07T17:35:48.667Z,21.25
2018-12-07T17:38:14.716Z,21.24
2018-12-07T17:40:40.847Z,21.25
2018-12-07T17:43:06.798Z,21.24
2018-12-07T17:45:33.021Z,21.22
2018-12-07T17:47:59.261Z,21.21
2018-12-07T17:50:25.505Z,21.23
2018-12-07T17:52:51.683Z,21.22
2018-12-07T17:55:18.006Z,21.23
2018-12-07T17:57:44.156Z,21.23
2018-12-07T18:00:10.362Z,21.20
2018-12-07T18:02:36.505Z,21.21
2018-12-07T18:05:02.533Z,21.22
2018-12-07T18:07:28.546Z,21.23
2018-12-07T18:09:54.861Z,21.21
2018-12-07T18:12:20.993Z,21.22
2018-12-07T18:14:47.091Z,21.23
2018-12-07T18:17:13.073Z,21.21
2018-12-07T18:19:39.171Z,21.21
2018-12-07T18:22:05.224Z,21.22
2018-12-07T18:24:31.379Z,21.18
2018-12-07T18:26:57.535Z,21.18
2018-12-07T18:29:23.565Z,21.17
2018-12-07T18:31:49.617Z,21.16
2018-12-07T18:34:15.883Z,21.15
2018-12-07T18:36:42.124Z,21.16
2018-12-07T18:39:08.471Z,21.13
2018-12-07T18:41:34.712Z,21.13
2018-12-07T18:44:01.064Z,21.13
2018-12-07T18:46:27.115Z,21.13
2018-12-07T18:48:53.064Z,21.12
2018-12-07T18:51:19.144Z,21.15
2018-12-07T18:53:45.286Z,21.13
2018-12-07T18:56:11.411Z,21.16
2018-12-07T18:58:37.699Z,21.17
2018-12-07T19:01:04.017Z,21.16
2018-12-07T19:03:30.128Z,21.16
2018-12-07T19:05:56.279Z,21.17
2018-12-07T19:08:22.431Z,21.17
2018-12-07T19:10:48.630Z,21.17
2018-12-07T19:13:14.826Z,21.17
2018-12-07T19:15:40.955Z,21.16
2018-12-07T19:18:06.952Z,21.14
2018-12-07T19:20:32.993Z,21.13
2018-12-07T19:22:59.296Z,21.15
2018-12-07T19:25:25.351Z,21.15
2018-12-07T19:27:51.398Z,21.13
2018-12-07T19:30:17.535Z,21.12
2018-12-07T19:32:43.910Z,21.12
2018-12-07T19:35:10.135Z,21.11
2018-12-07T19:37:36.371Z,21.12
2018-12-07T19:40:02.683Z,21.11
2018-12-07T19:42:28.899Z,21.11
2018-12-07T19:44:55.116Z,21.12
2018-12-07T19:47:21.302Z,21.12
2018-12-07T19:49:47.505Z,21.12
2018-12-07T19:52:13.987Z,21.13
2018-12-07T19:54:40.330Z,21.12
2018-12-07T19:57:06.663Z,21.10
2018-12-07T19:59:32.688Z,21.10
2018-12-07T20:01:58.910Z,21.09
2018-12-07T20:04:25.067Z,21.10
2018-12-07T20:06:51.536Z,21.12
2018-12-07T20:09:17.752Z,21.10
2018-12-07T20:11:43.850Z,21.10
2018-12-07T20:14:10.098Z,21.08
2018-12-07T20:16:36.367Z,21.08
2018-12-07T20:19:02.657Z,21.08
2018-12-07T20:21:28.705Z,21.09
2018-12-07T20:23:54.801Z,21.09
2018-12-07T20:26:21.048Z,21.09
2018-12-07T20:28:47.412Z,21.09
2018-12-07T20:31:13.604Z,21.09
2018-12-07T20:33:39.704Z,21.10
2018-12-07T20:36:05.793Z,21.09
2018-12-07T20:38:31.991Z,21.11
2018-12-07T20:40:58.155Z,21.11
2018-12-07T20:43:24.439Z,21.10
2018-12-07T20:45:50.507Z,21.11
2018-12-07T20:48:16.596Z,21.11
2018-12-07T20:50:43.024Z,21.10
2018-12-07T20:53:09.197Z,21.09
2018-12-07T20:55:35.222Z,21.09
2018-12-07T20:58:01.413Z,21.08
2018-12-07T21:00:27.693Z,21.08
2018-12-07T21:02:53.948Z,21.06
2018-12-07T21:05:20.166Z,21.07
2018-12-07T21:07:46.463Z,21.07
2018-12-07T21:10:12.638Z,21.06
2018-12-07T21:12:38.863Z,21.05
2018-12-07T21:15:04.884Z,21.05
2018-12-07T21:17:30.888Z,21.07
2018-12-07T21:19:57.262Z,21.06
2018-12-07T21:22:23.491Z,21.05
2018-12-07T21:24:50.001Z,21.05
2018-12-07T21:27:17.654Z,21.06
2018-12-07T21:29:44.227Z,21.05
2018-12-07T21:32:10.457Z,21.06
2018-12-07T21:34:36.719Z,21.05
2018-12-07T21:37:02.775Z,21.02
2018-12-07T21:39:29.265Z,21.02
2018-12-07T21:41:55.668Z,21.01
2018-12-07T21:44:21.727Z,20.99
2018-12-07T21:46:47.721Z,20.99
2018-12-07T21:49:14.036Z,20.98
2018-12-07T21:51:40.282Z,20.98
2018-12-07T21:54:06.289Z,20.98
2018-12-07T21:56:32.658Z,20.98
2018-12-07T21:58:58.866Z,20.98
2018-12-07T22:01:25.023Z,20.99
2018-12-07T22:03:51.107Z,20.97
2018-12-07T22:06:17.586Z,20.96
2018-12-07T22:08:43.880Z,20.96
2018-12-07T22:11:09.957Z,20.97
2018-12-07T22:13:36.238Z,20.96
2018-12-07T22:16:02.285Z,20.96
2018-12-07T22:18:28.250Z,20.96
2018-12-07T22:20:54.202Z,20.95
2018-12-07T22:23:20.563Z,20.96
2018-12-07T22:25:46.704Z,20.94
2018-12-07T22:28:13.212Z,20.92
2018-12-07T22:30:39.465Z,20.92
2018-12-07T22:33:05.797Z,20.92
2018-12-07T22:35:32.089Z,20.92
2018-12-07T22:37:58.172Z,20.90
2018-12-07T22:40:24.348Z,20.89
2018-12-07T22:42:50.584Z,20.89
2018-12-07T22:45:16.666Z,20.90
2018-12-07T22:47:42.866Z,20.90
2018-12-07T22:50:08.939Z,20.90
2018-12-07T22:52:34.930Z,20.89
2018-12-07T22:55:00.910Z,20.88
2018-12-07T22:57:26.882Z,20.83
2018-12-07T22:59:52.851Z,20.84
2018-12-07T23:02:18.854Z,20.84
2018-12-07T23:04:44.910Z,20.85
2018-12-07T23:07:10.911Z,20.83
2018-12-07T23:09:36.940Z,20.84
2018-12-07T23:12:02.975Z,20.80
2018-12-07T23:14:28.952Z,20.84
2018-12-07T23:16:54.920Z,20.84
2018-12-07T23:19:20.911Z,20.82
2018-12-07T23:21:46.870Z,20.81
2018-12-07T23:24:12.840Z,20.79
2018-12-07T23:26:38.798Z,20.82
2018-12-07T23:29:04.854Z,20.80
2018-12-07T23:31:30.908Z,20.81
2018-12-07T23:33:56.929Z,20.83
2018-12-07T23:36:22.969Z,20.83
2018-12-07T23:38:48.971Z,20.83
2018-12-07T23:41:14.910Z,20.85
2018-12-07T23:43:40.877Z,20.86
2018-12-07T23:46:06.850Z,20.85
2018-12-07T23:48:32.801Z,20.85
2018-12-07T23:50:58.734Z,20.84
2018-12-07T23:53:24.697Z,20.84
2018-12-07T23:55:50.676Z,20.83
2018-12-07T23:58:16.717Z,20.81
